createdAt,value
2022-10-22T00:02:02.279Z,99860.72
2022-10-22T00:04:34.368Z,99860.34
2022-10-22T00:07:03.453Z,99861.00
2022-10-22T00:09:30.740Z,99860.16
2022-10-22T00:11:59.914Z,99863.22
2022-10-22T00:14:27.225Z,99860.22
2022-10-22T00:16:54.975Z,99857.66
2022-10-22T00:19:22.342Z,99846.97
2022-10-22T00:21:49.927Z,99850.19
2022-10-22T00:24:17.298Z,99850.00
2022-10-22T00:26:45.190Z,99846.00
2022-10-22T00:29:14.208Z,99839.88
2022-10-22T00:31:42.459Z,99823.50
2022-10-22T00:34:09.731Z,99821.28
2022-10-22T00:36:37.371Z,99831.50
2022-10-22T00:39:04.758Z,99826.09
2022-10-22T00:41:32.771Z,99822.44
2022-10-22T00:44:02.008Z,99817.91
2022-10-22T00:46:31.475Z,99810.31
2022-10-22T00:49:02.917Z,99798.75
2022-10-22T00:51:34.063Z,99797.34
2022-10-22T00:54:06.479Z,99794.47
2022-10-22T00:56:34.136Z,99794.16
2022-10-22T00:59:03.257Z,99788.19
2022-10-22T01:01:32.563Z,99789.75
2022-10-22T01:04:00.703Z,99793.91
2022-10-22T01:06:30.994Z,99789.34
2022-10-22T01:09:15.335Z,99799.78
2022-10-22T01:11:53.657Z,99803.31
2022-10-22T01:14:27.604Z,99822.31
2022-10-22T01:17:03.587Z,99830.31
2022-10-22T01:19:54.108Z,99847.06
2022-10-22T01:22:30.833Z,99829.97
2022-10-22T01:25:02.091Z,99819.53
2022-10-22T01:27:40.095Z,99810.44
2022-10-22T01:30:11.855Z,99805.97
2022-10-22T01:32:43.933Z,99815.56
2022-10-22T01:35:14.426Z,99813.50
2022-10-22T01:37:46.382Z,99800.00
2022-10-22T01:40:15.987Z,99794.41
2022-10-22T01:42:57.760Z,99794.41
2022-10-22T01:45:28.096Z,99789.75
2022-10-22T01:48:07.108Z,99796.75
2022-10-22T01:51:06.109Z,99791.28
2022-10-22T01:56:25.607Z,99789.84
2022-10-22T01:59:02.238Z,99783.28
2022-10-22T02:01:39.720Z,99778.38
2022-10-22T02:04:15.795Z,99778.00
2022-10-22T02:06:46.968Z,99776.78
2022-10-22T02:09:17.890Z,99769.66
2022-10-22T02:11:46.421Z,99761.75
2022-10-22T02:14:16.205Z,99775.03
2022-10-22T02:16:47.577Z,99782.94
2022-10-22T02:19:19.913Z,99788.88
2022-10-22T02:21:47.439Z,99796.06
2022-10-22T02:24:15.949Z,99795.97
2022-10-22T02:26:49.039Z,99798.38
2022-10-22T02:29:21.948Z,99788.38
2022-10-22T02:31:53.945Z,99792.53
2022-10-22T02:34:25.761Z,99809.91
2022-10-22T02:36:54.718Z,99800.06
2022-10-22T02:39:22.852Z,99802.56
2022-10-22T02:41:50.432Z,99792.44
2022-10-22T02:44:21.789Z,99768.84
2022-10-22T02:46:51.086Z,99761.28
2022-10-22T02:49:18.957Z,99772.84
2022-10-22T02:51:46.202Z,99763.88
2022-10-22T02:54:14.285Z,99775.28
2022-10-22T02:56:41.991Z,99766.06
2022-10-22T02:59:10.288Z,99774.41
2022-10-22T03:01:37.462Z,99772.94
2022-10-22T03:04:07.434Z,99771.34
2022-10-22T03:06:34.707Z,99783.28
2022-10-22T03:09:05.325Z,99791.03
2022-10-22T03:11:32.781Z,99784.03
2022-10-22T03:14:00.605Z,99785.00
2022-10-22T03:16:27.955Z,99778.44
2022-10-22T03:18:56.027Z,99777.94
2022-10-22T03:21:31.515Z,99779.81
2022-10-22T03:24:01.954Z,99786.22
2022-10-22T03:26:29.715Z,99785.78
2022-10-22T03:28:58.126Z,99787.38
2022-10-22T03:31:25.532Z,99796.56
2022-10-22T03:33:53.287Z,99795.16
2022-10-22T03:36:20.755Z,99802.59
2022-10-22T03:38:50.691Z,99798.03
2022-10-22T03:41:18.130Z,99783.53
2022-10-22T03:43:46.104Z,99781.13
2022-10-22T03:46:13.468Z,99790.19
2022-10-22T03:48:41.464Z,99787.41
2022-10-22T03:51:08.832Z,99797.03
2022-10-22T03:53:36.723Z,99789.25
2022-10-22T03:56:08.591Z,99794.75
2022-10-22T03:58:36.429Z,99799.94
2022-10-22T04:01:05.648Z,99792.06
2022-10-22T04:03:33.952Z,99790.38
2022-10-22T04:06:02.768Z,99792.13
2022-10-22T04:08:30.875Z,99788.75
2022-10-22T04:10:58.709Z,99786.53
2022-10-22T04:13:28.275Z,99784.34
2022-10-22T04:15:55.728Z,99774.81
2022-10-22T04:18:24.125Z,99758.94
2022-10-22T04:20:52.592Z,99774.66
2022-10-22T04:23:20.744Z,99778.09
2022-10-22T04:25:48.144Z,99776.59
2022-10-22T04:28:15.801Z,99787.97
2022-10-22T04:30:44.454Z,99786.16
2022-10-22T04:33:12.088Z,99781.66
2022-10-22T04:35:39.660Z,99784.47
2022-10-22T04:38:07.392Z,99780.94
2022-10-22T04:40:35.032Z,99795.88
2022-10-22T04:43:02.794Z,99803.84
2022-10-22T04:45:30.164Z,99820.38
2022-10-22T04:47:59.467Z,99820.47
2022-10-22T04:50:27.032Z,99811.00
2022-10-22T04:52:54.854Z,99813.91
2022-10-22T04:55:22.277Z,99803.28
2022-10-22T04:57:50.037Z,99805.72
2022-10-22T05:00:17.760Z,99802.03
2022-10-22T05:02:49.994Z,99803.28
2022-10-22T05:05:18.834Z,99805.13
2022-10-22T05:07:46.758Z,99806.16
2022-10-22T05:10:14.332Z,99804.63
2022-10-22T05:12:42.027Z,99806.00
2022-10-22T05:15:10.430Z,99812.31
2022-10-22T05:17:38.361Z,99819.66
2022-10-22T05:20:07.116Z,99813.13
2022-10-22T05:22:38.276Z,99810.38
2022-10-22T05:25:06.579Z,99815.94
2022-10-22T05:27:34.173Z,99818.41
2022-10-22T05:30:01.556Z,99834.34
2022-10-22T05:32:29.238Z,99836.47
2022-10-22T05:34:56.581Z,99844.38
2022-10-22T05:37:30.071Z,99852.78
2022-10-22T05:40:12.333Z,99865.97
2022-10-22T05:42:46.504Z,99868.19
2022-10-22T05:45:14.051Z,99872.53
2022-10-22T05:47:41.646Z,99873.16
2022-10-22T05:50:09.270Z,99873.91
2022-10-22T05:52:36.968Z,99872.31
2022-10-22T05:55:06.426Z,99879.31
2022-10-22T05:57:34.777Z,99875.91
2022-10-22T06:00:02.471Z,99868.41
2022-10-22T06:02:30.570Z,99869.66
2022-10-22T06:05:01.049Z,99873.03
2022-10-22T06:07:29.586Z,99865.00
2022-10-22T06:10:00.150Z,99880.25
2022-10-22T06:12:29.779Z,99872.81
2022-10-22T06:14:57.028Z,99860.50
2022-10-22T06:17:24.929Z,99857.31
2022-10-22T06:19:52.349Z,99862.03
2022-10-22T06:22:20.212Z,99857.63
2022-10-22T06:24:47.761Z,99857.31
2022-10-22T06:27:16.055Z,99865.03
2022-10-22T06:29:44.780Z,99859.38
2022-10-22T06:32:12.406Z,99859.00
2022-10-22T06:34:39.798Z,99855.66
2022-10-22T06:37:07.751Z,99853.88
2022-10-22T06:39:34.982Z,99858.25
2022-10-22T06:42:02.592Z,99862.09
2022-10-22T06:44:29.943Z,99865.09
2022-10-22T06:46:59.164Z,99863.69
2022-10-22T06:49:26.476Z,99860.50
2022-10-22T06:51:54.842Z,99862.69
2022-10-22T06:54:23.113Z,99857.00
2022-10-22T06:56:51.199Z,99867.16
2022-10-22T06:59:18.438Z,99873.84
2022-10-22T07:01:46.599Z,99866.56
2022-10-22T07:04:15.708Z,99868.69
2022-10-22T07:06:43.268Z,99880.13
2022-10-22T07:09:11.218Z,99888.66
2022-10-22T07:11:41.650Z,99892.69
2022-10-22T07:14:09.860Z,99888.72
2022-10-22T07:16:37.609Z,99895.66
2022-10-22T07:19:05.701Z,99886.34
2022-10-22T07:21:35.292Z,99885.59
2022-10-22T07:24:02.616Z,99884.19
2022-10-22T07:26:30.928Z,99889.19
2022-10-22T07:28:58.841Z,99893.50
2022-10-22T07:31:27.540Z,99895.00
2022-10-22T07:33:55.102Z,99885.50
2022-10-22T07:36:23.051Z,99892.84
2022-10-22T07:38:54.949Z,99896.38
2022-10-22T07:41:23.078Z,99891.31
2022-10-22T07:43:50.503Z,99883.91
2022-10-22T07:46:18.165Z,99894.03
2022-10-22T07:48:45.625Z,99889.66
2022-10-22T07:51:15.306Z,99893.53
2022-10-22T07:53:43.757Z,99899.28
2022-10-22T07:56:13.067Z,99901.25
2022-10-22T07:58:40.228Z,99902.00
2022-10-22T08:01:08.179Z,99902.44
2022-10-22T08:03:36.116Z,99913.38
2022-10-22T08:06:04.145Z,99916.06
2022-10-22T08:08:31.824Z,99905.75
2022-10-22T08:11:01.233Z,99907.28
2022-10-22T08:13:30.218Z,99904.16
2022-10-22T08:15:58.746Z,99905.75
2022-10-22T08:18:26.306Z,99911.03
2022-10-22T08:20:54.467Z,99903.09
2022-10-22T08:23:25.919Z,99911.16
2022-10-22T08:25:57.147Z,99918.50
2022-10-22T08:28:24.629Z,99923.72
2022-10-22T08:30:53.991Z,99933.31
2022-10-22T08:33:21.748Z,99932.72
2022-10-22T08:35:49.714Z,99939.78
2022-10-22T08:38:17.598Z,99941.03
2022-10-22T08:43:41.658Z,99940.28
2022-10-22T08:46:46.891Z,99932.78
2022-10-22T08:49:20.667Z,99940.47
2022-10-22T08:51:48.836Z,99934.97
2022-10-22T08:54:28.038Z,99923.50
2022-10-22T08:57:13.419Z,99931.25
2022-10-22T08:59:46.150Z,99930.41
2022-10-22T09:02:28.600Z,99928.00
2022-10-22T09:05:11.496Z,99927.22
2022-10-22T09:07:42.425Z,99934.03
2022-10-22T09:10:12.806Z,99935.41
2022-10-22T09:12:40.759Z,99941.78
2022-10-22T09:15:13.509Z,99944.44
2022-10-22T09:17:54.548Z,99951.63
2022-10-22T09:20:27.336Z,99954.31
2022-10-22T09:23:05.127Z,99962.63
2022-10-22T09:25:36.608Z,99960.97
2022-10-22T09:28:05.221Z,99966.44
2022-10-22T09:30:36.500Z,99962.66
2022-10-22T09:33:14.190Z,99966.81
2022-10-22T09:35:47.196Z,99957.03
2022-10-22T09:38:16.749Z,99961.81
2022-10-22T09:40:45.888Z,99960.59
2022-10-22T09:43:14.613Z,99967.06
2022-10-22T09:45:42.814Z,99960.13
2022-10-22T09:48:20.556Z,99947.25
2022-10-22T09:50:49.644Z,99942.91
2022-10-22T09:53:20.618Z,99949.56
2022-10-22T09:58:22.254Z,99958.31
2022-10-22T10:00:54.403Z,99955.25
2022-10-22T10:03:26.247Z,99961.50
2022-10-22T10:05:56.327Z,99960.03
2022-10-22T10:08:25.285Z,99969.41
2022-10-22T10:10:56.750Z,99956.53
2022-10-22T10:13:35.516Z,99951.34
2022-10-22T10:16:12.086Z,99965.06
2022-10-22T10:18:55.838Z,99966.72
2022-10-22T10:21:31.014Z,99970.28
2022-10-22T10:24:06.111Z,99972.78
2022-10-22T10:26:42.877Z,99974.47
2022-10-22T10:29:24.826Z,99971.97
2022-10-22T10:32:07.173Z,99963.44
2022-10-22T10:34:43.864Z,99961.81
2022-10-22T10:37:23.257Z,99965.56
2022-10-22T10:40:12.438Z,99962.22
2022-10-22T10:42:46.848Z,99970.75
2022-10-22T10:45:19.070Z,99964.72
2022-10-22T10:48:07.615Z,99965.53
2022-10-22T10:50:48.872Z,99961.16
2022-10-22T10:53:27.423Z,99976.53
2022-10-22T10:56:01.747Z,99978.63
2022-10-22T10:58:40.699Z,99969.81
2022-10-22T11:01:20.090Z,99965.44
2022-10-22T11:04:02.305Z,99969.81
2022-10-22T11:06:34.229Z,99962.06
2022-10-22T11:09:07.152Z,99953.50
2022-10-22T11:11:41.437Z,99960.84
2022-10-22T11:14:14.653Z,99957.53
2022-10-22T11:16:46.719Z,99952.53
2022-10-22T11:19:22.802Z,99954.31
2022-10-22T11:22:02.029Z,99956.59
2022-10-22T11:24:36.823Z,99950.50
2022-10-22T11:27:13.302Z,99955.03
2022-10-22T11:29:45.527Z,99972.53
2022-10-22T11:32:17.592Z,99967.09
2022-10-22T11:34:48.647Z,99972.81
2022-10-22T11:37:18.885Z,99974.50
2022-10-22T11:39:50.810Z,99976.84
2022-10-22T11:42:21.195Z,99983.13
2022-10-22T11:44:58.853Z,99984.00
2022-10-22T11:47:29.002Z,99983.56
2022-10-22T11:50:02.850Z,99974.75
2022-10-22T11:52:55.594Z,99958.06
2022-10-22T11:55:44.912Z,99962.25
2022-10-22T11:58:29.062Z,99964.53
2022-10-22T12:00:58.261Z,99967.69
2022-10-22T12:03:39.788Z,99959.34
2022-10-22T12:06:19.779Z,99958.97
2022-10-22T12:08:53.808Z,99957.53
2022-10-22T12:11:23.662Z,99951.31
2022-10-22T12:13:58.268Z,99946.50
2022-10-22T12:16:32.276Z,99949.44
2022-10-22T12:19:12.836Z,99956.75
2022-10-22T12:21:42.514Z,99953.41
2022-10-22T12:24:14.750Z,99955.94
2022-10-22T12:26:42.568Z,99957.63
2022-10-22T12:29:13.553Z,99957.19
2022-10-22T12:31:42.739Z,99955.53
2022-10-22T12:34:15.077Z,99950.53
2022-10-22T12:36:42.624Z,99965.13
2022-10-22T12:39:15.136Z,99952.66
2022-10-22T12:41:43.289Z,99952.84
2022-10-22T12:44:13.332Z,99959.09
2022-10-22T12:46:42.207Z,99959.50
2022-10-22T12:49:15.772Z,99959.91
2022-10-22T12:51:44.522Z,99961.19
2022-10-22T12:54:23.292Z,99950.53
2022-10-22T12:56:50.515Z,99952.81
2022-10-22T13:02:17.450Z,99961.97
2022-10-22T13:05:15.018Z,99950.97
2022-10-22T13:07:44.975Z,99951.81
2022-10-22T13:10:20.462Z,99958.03
2022-10-22T13:12:54.134Z,99966.16
2022-10-22T13:15:33.804Z,99967.38
2022-10-22T13:18:06.995Z,99966.78
2022-10-22T13:20:34.833Z,99964.06
2022-10-22T13:23:03.405Z,99972.59
2022-10-22T13:25:34.167Z,99971.56
2022-10-22T13:28:10.859Z,99964.94
2022-10-22T13:30:40.206Z,99974.28
2022-10-22T13:33:22.440Z,99967.81
2022-10-22T13:35:50.503Z,99968.22
2022-10-22T13:38:20.462Z,99970.72
2022-10-22T13:40:53.565Z,99972.19
2022-10-22T13:43:21.127Z,99975.13
2022-10-22T13:45:53.315Z,99974.69
2022-10-22T13:48:23.756Z,99973.22
2022-10-22T13:50:53.332Z,99978.41
2022-10-22T13:53:23.373Z,99985.25
2022-10-22T13:55:52.934Z,99983.56
2022-10-22T13:58:24.896Z,99986.25
2022-10-22T14:00:55.097Z,99989.19
2022-10-22T14:03:26.769Z,99995.06
2022-10-22T14:05:54.599Z,99996.34
2022-10-22T14:08:24.519Z,99995.66
2022-10-22T14:10:54.355Z,99994.41
2022-10-22T14:13:21.745Z,99995.06
2022-10-22T14:15:51.593Z,99997.81
2022-10-22T14:18:23.281Z,100001.13
2022-10-22T14:20:52.620Z,100003.66
2022-10-22T14:23:23.020Z,99998.88
2022-10-22T14:25:51.352Z,100006.59
2022-10-22T14:28:20.150Z,100005.16
2022-10-22T14:30:48.066Z,100008.06
2022-10-22T14:33:18.218Z,100006.81
2022-10-22T14:35:46.304Z,100006.59
2022-10-22T14:38:13.824Z,100014.75
2022-10-22T14:40:42.481Z,100007.47
2022-10-22T14:43:11.951Z,100018.72
2022-10-22T14:45:41.336Z,100015.78
2022-10-22T14:48:08.708Z,100016.19
2022-10-22T14:50:36.499Z,100021.63
2022-10-22T14:53:03.932Z,100015.81
2022-10-22T14:55:31.593Z,100016.84
2022-10-22T14:57:58.979Z,100017.22
2022-10-22T15:00:26.868Z,100023.94
2022-10-22T15:02:55.838Z,100025.16
2022-10-22T15:05:23.702Z,100021.63
2022-10-22T15:07:51.045Z,100024.75
2022-10-22T15:10:18.677Z,100020.38
2022-10-22T15:12:46.526Z,100020.13
2022-10-22T15:15:15.691Z,100015.75
2022-10-22T15:17:44.233Z,100024.09
2022-10-22T15:20:13.652Z,100029.50
2022-10-22T15:22:41.335Z,100025.56
2022-10-22T15:25:09.253Z,100030.78
2022-10-22T15:27:36.773Z,100036.81
2022-10-22T15:30:06.590Z,100038.91
2022-10-22T15:32:34.108Z,100038.50
2022-10-22T15:35:01.919Z,100036.22
2022-10-22T15:37:30.969Z,100051.88
2022-10-22T15:39:58.716Z,100046.00
2022-10-22T15:42:26.121Z,100055.44
2022-10-22T15:44:58.262Z,100050.81
2022-10-22T15:47:25.557Z,100052.72
2022-10-22T15:49:53.143Z,100060.00
2022-10-22T15:52:20.507Z,100058.94
2022-10-22T15:54:49.680Z,100060.59
2022-10-22T15:57:17.082Z,100061.88
2022-10-22T15:59:44.777Z,100059.56
2022-10-22T16:02:12.094Z,100064.59
2022-10-22T16:04:40.234Z,100068.56
2022-10-22T16:07:07.511Z,100068.75
2022-10-22T16:09:35.346Z,100080.22
2022-10-22T16:12:04.644Z,100075.84
2022-10-22T16:14:32.719Z,100081.69
2022-10-22T16:17:03.049Z,100087.13
2022-10-22T16:19:30.632Z,100083.34
2022-10-22T16:21:57.940Z,100091.69
2022-10-22T16:24:25.731Z,100097.31
2022-10-22T16:26:52.972Z,100104.41
2022-10-22T16:29:21.904Z,100101.28
2022-10-22T16:31:49.189Z,100104.41
2022-10-22T16:34:17.315Z,100114.44
2022-10-22T16:36:44.856Z,100114.44
2022-10-22T16:39:12.672Z,100115.06
2022-10-22T16:41:39.816Z,100117.16
2022-10-22T16:44:08.283Z,100119.44
2022-10-22T16:46:37.155Z,100114.41
2022-10-22T16:49:06.682Z,100129.41
2022-10-22T16:51:34.841Z,100118.75
2022-10-22T16:54:04.631Z,100121.91
2022-10-22T16:56:34.297Z,100126.28
2022-10-22T16:59:02.133Z,100123.75
2022-10-22T17:01:30.046Z,100124.56
2022-10-22T17:04:00.634Z,100135.75
2022-10-22T17:06:28.301Z,100135.31
2022-10-22T17:08:56.243Z,100139.84
2022-10-22T17:11:24.445Z,100149.41
2022-10-22T17:13:54.133Z,100149.78
2022-10-22T17:16:23.514Z,100157.63
2022-10-22T17:18:52.848Z,100157.28
2022-10-22T17:21:22.630Z,100159.56
2022-10-22T17:23:54.694Z,100163.31
2022-10-22T17:26:22.903Z,100162.13
2022-10-22T17:28:51.279Z,100164.00
2022-10-22T17:31:20.794Z,100164.16
2022-10-22T17:33:50.291Z,100174.38
2022-10-22T17:36:18.906Z,100172.75
2022-10-22T17:38:51.998Z,100168.75
2022-10-22T17:41:21.972Z,100179.09
2022-10-22T17:43:49.707Z,100176.22
2022-10-22T17:46:19.341Z,100175.19
2022-10-22T17:48:50.622Z,100181.03
2022-10-22T17:51:18.946Z,100192.88
2022-10-22T17:53:47.031Z,100185.47
2022-10-22T17:56:18.127Z,100190.41
2022-10-22T17:58:45.729Z,100190.31
2022-10-22T18:01:19.105Z,100196.63
2022-10-22T18:03:47.214Z,100195.88
2022-10-22T18:06:14.649Z,100197.97
2022-10-22T18:08:42.574Z,100199.69
2022-10-22T18:11:12.738Z,100201.31
2022-10-22T18:13:42.017Z,100204.00
2022-10-22T18:16:09.576Z,100212.63
2022-10-22T18:18:37.278Z,100212.19
2022-10-22T18:21:05.347Z,100214.25
2022-10-22T18:23:33.035Z,100216.75
2022-10-22T18:26:00.568Z,100209.88
2022-10-22T18:28:28.202Z,100214.25
2022-10-22T18:30:57.038Z,100216.56
2022-10-22T18:33:24.711Z,100216.97
2022-10-22T18:35:53.334Z,100220.84
2022-10-22T18:38:21.096Z,100222.56
2022-10-22T18:40:49.738Z,100212.41
2022-10-22T18:43:18.214Z,100219.34
2022-10-22T18:45:46.853Z,100223.22
2022-10-22T18:48:17.949Z,100219.56
2022-10-22T18:50:46.612Z,100220.16
2022-10-22T18:53:16.250Z,100221.31
2022-10-22T18:55:44.508Z,100226.66
2022-10-22T18:58:12.214Z,100232.41
2022-10-22T19:00:39.852Z,100222.22
2022-10-22T19:03:07.619Z,100233.94
2022-10-22T19:05:45.522Z,100231.78
2022-10-22T19:08:13.473Z,100234.28
2022-10-22T19:10:40.922Z,100244.50
2022-10-22T19:13:08.708Z,100239.81
2022-10-22T19:15:36.217Z,100239.72
2022-10-22T19:18:04.332Z,100241.41
2022-10-22T19:20:31.814Z,100252.72
2022-10-22T19:23:01.206Z,100255.22
2022-10-22T19:25:29.242Z,100252.31
2022-10-22T19:27:57.146Z,100254.03
2022-10-22T19:30:24.789Z,100252.94
2022-10-22T19:32:52.552Z,100258.00
2022-10-22T19:35:19.988Z,100252.00
2022-10-22T19:37:48.526Z,100264.16
2022-10-22T19:40:17.697Z,100256.59
2022-10-22T19:42:45.658Z,100262.22
2022-10-22T19:45:13.135Z,100264.88
2022-10-22T19:47:41.277Z,100266.97
2022-10-22T19:50:08.955Z,100274.28
2022-10-22T19:52:37.138Z,100282.81
2022-10-22T19:55:05.083Z,100278.56
2022-10-22T19:57:34.109Z,100281.63
2022-10-22T20:00:01.604Z,100288.59
2022-10-22T20:02:29.525Z,100290.69
2022-10-22T20:04:56.908Z,100292.38
2022-10-22T20:07:24.635Z,100303.50
2022-10-22T20:09:51.982Z,100300.66
2022-10-22T20:12:23.037Z,100301.72
2022-10-22T20:14:51.939Z,100297.06
2022-10-22T20:17:19.790Z,100298.09
2022-10-22T20:19:47.395Z,100294.88
2022-10-22T20:22:17.929Z,100296.72
2022-10-22T20:24:46.215Z,100302.28
2022-10-22T20:27:13.912Z,100298.31
2022-10-22T20:29:41.444Z,100303.72
2022-10-22T20:32:10.897Z,100304.53
2022-10-22T20:34:38.178Z,100311.84
2022-10-22T20:37:05.870Z,100316.09
2022-10-22T20:39:33.160Z,100309.22
2022-10-22T20:42:00.727Z,100315.47
2022-10-22T20:44:27.943Z,100314.09
2022-10-22T20:49:28.903Z,100315.50
2022-10-22T20:51:56.542Z,100320.66
2022-10-22T20:54:23.962Z,100320.41
2022-10-22T20:56:51.512Z,100322.22
2022-10-22T20:59:19.231Z,100311.47
2022-10-22T21:01:48.913Z,100322.88
2022-10-22T21:04:17.933Z,100321.38
2022-10-22T21:06:47.707Z,100327.34
2022-10-22T21:09:15.739Z,100320.34
2022-10-22T21:11:44.504Z,100328.53
2022-10-22T21:14:14.190Z,100331.47
2022-10-22T21:16:50.236Z,100328.19
2022-10-22T21:19:18.744Z,100328.19
2022-10-22T21:21:47.843Z,100330.28
2022-10-22T21:24:15.564Z,100328.03
2022-10-22T21:26:43.923Z,100333.25
2022-10-22T21:29:12.831Z,100333.31
2022-10-22T21:31:40.670Z,100326.97
2022-10-22T21:34:08.168Z,100332.56
2022-10-22T21:36:35.900Z,100341.88
2022-10-22T21:39:04.739Z,100344.50
2022-10-22T21:41:32.808Z,100334.81
2022-10-22T21:44:00.226Z,100340.84
2022-10-22T21:46:28.702Z,100338.16
2022-10-22T21:48:58.630Z,100340.84
2022-10-22T21:51:27.299Z,100345.78
2022-10-22T21:53:54.595Z,100339.09
2022-10-22T21:56:25.954Z,100344.31
2022-10-22T21:58:53.528Z,100342.72
2022-10-22T22:01:21.559Z,100342.72
2022-10-22T22:03:49.959Z,100344.22
2022-10-22T22:06:21.367Z,100341.31
2022-10-22T22:08:50.675Z,100344.84
2022-10-22T22:11:20.472Z,100346.53
2022-10-22T22:13:49.702Z,100346.84
2022-10-22T22:16:25.396Z,100348.97
2022-10-22T22:18:56.238Z,100355.28
2022-10-22T22:21:24.861Z,100350.19
2022-10-22T22:23:52.285Z,100351.84
2022-10-22T22:26:28.710Z,100351.38
2022-10-22T22:29:00.395Z,100357.69
2022-10-22T22:31:30.632Z,100355.59
2022-10-22T22:33:58.916Z,100352.00
2022-10-22T22:36:26.849Z,100354.91
2022-10-22T22:38:55.255Z,100359.09
2022-10-22T22:41:23.814Z,100363.47
2022-10-22T22:43:51.247Z,100357.56
2022-10-22T22:46:23.271Z,100358.44
2022-10-22T22:48:50.903Z,100359.34
2022-10-22T22:51:19.149Z,100358.38
2022-10-22T22:53:46.878Z,100364.47
2022-10-22T22:56:17.106Z,100362.69
2022-10-22T22:58:44.836Z,100365.88
2022-10-22T23:01:16.817Z,100368.56
2022-10-22T23:03:47.817Z,100360.56
2022-10-22T23:06:16.382Z,100357.50
2022-10-22T23:08:44.442Z,100370.03
2022-10-22T23:11:13.823Z,100367.00
2022-10-22T23:13:42.766Z,100365.25
2022-10-22T23:16:14.381Z,100378.25
2022-10-22T23:18:42.180Z,100370.16
2022-10-22T23:21:14.788Z,100368.50
2022-10-22T23:23:44.441Z,100380.13
2022-10-22T23:26:13.113Z,100384.34
2022-10-22T23:28:40.874Z,100378.34
2022-10-22T23:31:12.384Z,100366.25
2022-10-22T23:33:40.246Z,100372.31
2022-10-22T23:36:08.132Z,100372.31
2022-10-22T23:38:38.760Z,100371.94
2022-10-22T23:41:08.044Z,100368.78
2022-10-22T23:43:36.254Z,100365.25
2022-10-22T23:46:05.132Z,100377.03
2022-10-22T23:48:35.622Z,100374.19
2022-10-22T23:51:05.022Z,100375.69
2022-10-22T23:53:32.322Z,100376.72
2022-10-22T23:56:05.939Z,100364.09
2022-10-22T23:58:34.351Z,100374.50
